createdAt,value
2019-04-21T00:01:57.649Z,61.30
2019-04-21T00:04:40.699Z,61.30
2019-04-21T00:07:33.183Z,62.50
2019-04-21T00:09:52.374Z,62.00
2019-04-21T00:12:19.691Z,62.50
2019-04-21T00:14:45.038Z,62.40
2019-04-21T00:17:07.910Z,62.60
2019-04-21T00:19:38.961Z,63.70
2019-04-21T00:22:21.532Z,64.20
2019-04-21T00:24:50.743Z,64.80
2019-04-21T00:27:26.528Z,64.70
2019-04-21T00:30:01.762Z,65.00
2019-04-21T00:32:25.402Z,65.30
2019-04-21T00:34:50.439Z,65.30
2019-04-21T00:37:24.143Z,66.00
2019-04-21T00:40:03.762Z,66.10
2019-04-21T00:42:34.370Z,66.30
2019-04-21T00:45:04.910Z,67.60
2019-04-21T00:47:34.065Z,66.70
2019-04-21T00:50:11.277Z,67.90
2019-04-21T00:52:50.992Z,68.20
2019-04-21T00:57:57.097Z,68.70
2019-04-21T01:00:27.780Z,70.10
2019-04-21T01:03:01.917Z,69.10
2019-04-21T01:05:38.651Z,70.00
2019-04-21T01:08:01.426Z,70.40
2019-04-21T01:10:24.283Z,71.60
2019-04-21T01:13:04.027Z,70.70
2019-04-21T01:15:37.468Z,70.10
2019-04-21T01:18:05.094Z,69.90
2019-04-21T01:20:17.841Z,69.70
2019-04-21T01:22:47.115Z,70.40
2019-04-21T01:25:27.362Z,69.80
2019-04-21T01:28:04.980Z,69.40
2019-04-21T01:30:39.985Z,68.90
2019-04-21T01:33:12.508Z,68.90
2019-04-21T01:35:44.225Z,69.10
2019-04-21T01:38:14.165Z,68.90
2019-04-21T01:40:47.742Z,69.60
2019-04-21T01:43:13.666Z,68.90
2019-04-21T01:45:47.299Z,69.20
2019-04-21T01:48:13.069Z,70.00
2019-04-21T01:50:48.314Z,69.90
2019-04-21T01:53:30.659Z,70.50
2019-04-21T01:56:04.822Z,70.00
2019-04-21T01:58:29.171Z,70.00
2019-04-21T02:01:08.671Z,69.80
2019-04-21T02:03:56.838Z,69.20
2019-04-21T02:06:17.085Z,68.50
2019-04-21T02:08:41.525Z,68.60
2019-04-21T02:11:20.286Z,69.00
2019-04-21T02:13:53.164Z,69.30
2019-04-21T02:16:16.922Z,69.40
2019-04-21T02:18:49.935Z,69.90
2019-04-21T02:21:15.536Z,69.70
2019-04-21T02:26:23.060Z,71.20
2019-04-21T02:31:41.948Z,71.20
2019-04-21T02:34:21.834Z,70.80
2019-04-21T02:41:45.692Z,69.30
2019-04-21T02:44:10.147Z,68.90
2019-04-21T02:49:16.764Z,67.90
2019-04-21T02:51:50.869Z,67.40
2019-04-21T02:54:45.853Z,66.70
2019-04-21T02:56:53.448Z,66.30
2019-04-21T03:02:24.950Z,66.10
2019-04-21T03:05:13.526Z,65.50
2019-04-21T03:07:42.794Z,65.80
2019-04-21T03:10:12.438Z,64.90
2019-04-21T03:12:42.248Z,65.00
2019-04-21T03:15:29.224Z,64.90
2019-04-21T03:20:19.047Z,64.30
2019-04-21T03:22:44.684Z,63.70
2019-04-21T03:25:25.352Z,63.40
2019-04-21T03:30:26.331Z,63.30
2019-04-21T03:33:29.750Z,62.30
2019-04-21T03:37:52.997Z,61.20
2019-04-21T03:40:18.618Z,61.30
2019-04-21T03:47:53.232Z,62.10
2019-04-21T03:50:32.207Z,63.00
2019-04-21T03:53:02.735Z,62.10
2019-04-21T03:58:15.252Z,62.20
2019-04-21T04:01:01.677Z,62.10
2019-04-21T04:03:51.817Z,62.20
2019-04-21T04:06:28.406Z,62.30
2019-04-21T04:10:03.579Z,62.20
2019-04-21T04:11:41.525Z,61.90
2019-04-21T04:14:04.071Z,61.60
2019-04-21T04:16:37.821Z,61.40
2019-04-21T04:19:01.544Z,61.30
2019-04-21T04:24:05.349Z,61.00
2019-04-21T04:29:19.234Z,62.00
2019-04-21T04:31:37.507Z,62.00
2019-04-21T04:42:41.602Z,61.90
2019-04-21T04:45:08.329Z,61.30
2019-04-21T04:55:16.578Z,60.00
2019-04-21T04:57:36.606Z,59.10
2019-04-21T05:00:14.475Z,58.00
2019-04-21T05:02:33.628Z,56.80
2019-04-21T05:05:09.185Z,56.20
2019-04-21T05:07:36.692Z,55.30
2019-04-21T05:09:59.478Z,54.40
2019-04-21T05:12:30.935Z,54.20
2019-04-21T05:15:07.765Z,53.40
2019-04-21T05:17:37.750Z,53.40
2019-04-21T05:20:10.422Z,53.10
2019-04-21T05:22:32.803Z,52.70
2019-04-21T05:24:55.430Z,52.80
2019-04-21T05:27:38.370Z,53.20
2019-04-21T05:30:22.086Z,53.20
2019-04-21T05:33:10.351Z,53.30
2019-04-21T05:36:11.074Z,53.30
2019-04-21T05:38:54.103Z,52.60
2019-04-21T05:41:21.882Z,54.70
2019-04-21T05:44:06.578Z,55.50
2019-04-21T05:46:33.485Z,55.30
2019-04-21T05:49:05.040Z,56.80
2019-04-21T05:51:35.336Z,56.70
2019-04-21T05:54:14.958Z,56.50
2019-04-21T05:56:43.834Z,57.60
2019-04-21T05:59:12.087Z,56.90
2019-04-21T06:01:46.467Z,55.90
2019-04-21T06:04:29.087Z,55.80
2019-04-21T06:06:48.142Z,55.20
2019-04-21T06:09:19.780Z,55.20
2019-04-21T06:11:51.401Z,54.70
2019-04-21T06:14:20.566Z,56.90
2019-04-21T06:16:55.586Z,55.50
2019-04-21T06:19:30.690Z,58.70
2019-04-21T06:21:51.309Z,59.30
2019-04-21T06:24:25.144Z,58.40
2019-04-21T06:29:30.144Z,56.50
2019-04-21T06:32:20.344Z,56.10
2019-04-21T06:34:45.599Z,54.70
2019-04-21T06:37:22.474Z,53.40
2019-04-21T06:39:57.708Z,53.50
2019-04-21T06:42:09.652Z,53.40
2019-04-21T06:44:51.544Z,53.60
2019-04-21T06:47:15.730Z,50.80
2019-04-21T06:49:39.803Z,54.80
2019-04-21T06:52:31.836Z,55.20
2019-04-21T06:54:46.902Z,54.90
2019-04-21T06:57:16.492Z,55.80
2019-04-21T06:59:43.553Z,55.50
2019-04-21T07:04:51.730Z,55.00
2019-04-21T07:07:17.207Z,54.50
2019-04-21T07:09:53.112Z,54.70
2019-04-21T07:12:20.239Z,54.50
2019-04-21T07:14:54.688Z,55.40
2019-04-21T07:17:30.171Z,54.50
2019-04-21T07:19:57.154Z,54.60
2019-04-21T07:22:35.359Z,55.20
2019-04-21T07:25:00.286Z,54.90
2019-04-21T07:27:33.904Z,54.60
2019-04-21T07:29:58.239Z,52.50
2019-04-21T07:32:33.730Z,53.10
2019-04-21T07:34:58.480Z,52.20
2019-04-21T07:37:31.640Z,52.80
2019-04-21T07:40:03.698Z,50.90
2019-04-21T07:42:28.249Z,50.90
2019-04-21T07:45:00.680Z,51.70
2019-04-21T07:47:44.423Z,50.80
2019-04-21T07:50:14.789Z,50.40
2019-04-21T07:52:56.051Z,51.10
2019-04-21T07:57:41.698Z,49.40
2019-04-21T08:00:47.871Z,50.00
2019-04-21T08:02:54.029Z,47.50
2019-04-21T08:05:27.510Z,49.30
2019-04-21T08:08:08.159Z,50.60
2019-04-21T08:10:28.617Z,50.50
2019-04-21T08:12:54.237Z,51.80
2019-04-21T08:18:00.711Z,49.80
2019-04-21T08:20:31.397Z,50.10
2019-04-21T08:23:05.966Z,51.30
2019-04-21T08:25:40.356Z,49.70
2019-04-21T08:28:07.296Z,48.70
2019-04-21T08:30:36.614Z,50.20
2019-04-21T08:38:08.859Z,48.60
2019-04-21T08:40:55.941Z,47.60
2019-04-21T08:43:09.233Z,46.60
2019-04-21T08:45:41.410Z,48.40
2019-04-21T08:48:12.427Z,46.20
2019-04-21T08:50:46.194Z,46.80
2019-04-21T08:53:13.738Z,43.40
2019-04-21T08:56:12.206Z,42.50
2019-04-21T08:58:59.184Z,44.00
2019-04-21T09:04:07.531Z,41.80
2019-04-21T09:06:54.048Z,42.80
2019-04-21T09:09:11.394Z,43.60
2019-04-21T09:11:40.384Z,43.80
2019-04-21T09:14:13.056Z,42.60
2019-04-21T09:16:37.019Z,42.40
2019-04-21T09:19:11.732Z,41.40
2019-04-21T09:21:43.584Z,41.70
2019-04-21T09:24:19.005Z,40.50
2019-04-21T09:26:41.345Z,39.20
2019-04-21T09:29:08.064Z,38.50
2019-04-21T09:31:33.773Z,38.50
2019-04-21T09:34:03.194Z,38.50
2019-04-21T09:36:41.286Z,39.40
2019-04-21T09:39:09.368Z,39.50
2019-04-21T09:41:34.790Z,38.50
2019-04-21T09:44:08.737Z,40.20
2019-04-21T09:46:43.265Z,40.20
2019-04-21T09:49:09.488Z,40.20
2019-04-21T09:51:37.179Z,38.40
2019-04-21T09:54:12.452Z,39.30
2019-04-21T09:56:46.561Z,40.30
2019-04-21T09:59:19.299Z,40.70
2019-04-21T10:01:56.019Z,40.20
2019-04-21T10:04:10.307Z,40.20
2019-04-21T10:06:39.689Z,40.70
2019-04-21T10:09:14.237Z,39.30
2019-04-21T10:11:41.706Z,38.10
2019-04-21T10:14:11.745Z,39.10
2019-04-21T10:16:47.999Z,38.10
2019-04-21T10:19:17.538Z,37.30
2019-04-21T10:21:47.844Z,37.50
2019-04-21T10:24:18.042Z,38.70
2019-04-21T10:26:47.460Z,37.70
2019-04-21T10:29:22.781Z,38.40
2019-04-21T10:31:48.152Z,37.30
2019-04-21T10:34:19.043Z,38.10
2019-04-21T10:36:49.086Z,38.40
2019-04-21T10:39:19.708Z,35.50
2019-04-21T10:41:49.199Z,39.20
2019-04-21T10:44:19.021Z,38.40
2019-04-21T10:46:50.361Z,38.50
2019-04-21T10:49:19.259Z,37.40
2019-04-21T10:51:48.893Z,38.20
2019-04-21T10:54:19.976Z,38.00
2019-04-21T10:56:50.708Z,38.30
2019-04-21T10:59:20.499Z,37.90
2019-04-21T11:01:50.468Z,36.70
2019-04-21T11:04:33.655Z,35.10
2019-04-21T11:07:05.168Z,34.50
2019-04-21T11:09:31.909Z,37.60
2019-04-21T11:12:02.027Z,37.60
2019-04-21T11:14:31.586Z,37.20
2019-04-21T11:17:00.950Z,38.50
2019-04-21T11:19:30.714Z,38.10
2019-04-21T11:22:01.049Z,37.20
2019-04-21T11:24:31.407Z,34.70
2019-04-21T11:27:01.855Z,35.70
2019-04-21T11:29:31.267Z,35.30
2019-04-21T11:32:00.989Z,36.30
2019-04-21T11:34:31.464Z,35.30
2019-04-21T11:37:01.890Z,36.50
2019-04-21T11:39:42.024Z,35.30
2019-04-21T11:42:07.933Z,34.50
2019-04-21T11:44:37.323Z,33.20
2019-04-21T11:47:10.287Z,32.70
2019-04-21T11:49:41.016Z,35.30
2019-04-21T11:52:11.333Z,36.70
2019-04-21T11:54:40.702Z,38.60
2019-04-21T11:57:17.603Z,33.20
2019-04-21T11:59:41.697Z,31.40
2019-04-21T12:02:11.970Z,31.10
2019-04-21T12:04:41.448Z,32.60
2019-04-21T12:07:11.369Z,29.00
2019-04-21T12:09:41.654Z,29.70
2019-04-21T12:12:11.593Z,36.00
2019-04-21T12:14:41.820Z,33.80
2019-04-21T12:17:12.129Z,30.20
2019-04-21T12:19:42.819Z,30.80
2019-04-21T12:22:21.138Z,31.80
2019-04-21T12:24:44.901Z,32.00
2019-04-21T12:27:14.214Z,33.50
2019-04-21T12:29:44.068Z,35.90
2019-04-21T12:32:33.870Z,37.10
2019-04-21T12:35:03.911Z,34.70
2019-04-21T12:37:33.347Z,35.60
2019-04-21T12:40:03.285Z,36.20
2019-04-21T12:42:32.657Z,35.60
2019-04-21T12:45:01.877Z,34.60
2019-04-21T12:47:32.120Z,36.20
2019-04-21T12:50:02.709Z,34.40
2019-04-21T12:52:33.504Z,34.00
2019-04-21T12:55:03.827Z,36.20
2019-04-21T12:57:33.375Z,35.40
2019-04-21T13:00:02.947Z,34.80
2019-04-21T13:02:32.150Z,35.70
2019-04-21T13:05:02.109Z,38.60
2019-04-21T13:07:31.595Z,35.60
2019-04-21T13:10:02.062Z,35.00
2019-04-21T13:12:31.664Z,34.90
2019-04-21T13:15:02.664Z,35.00
2019-04-21T13:17:33.071Z,36.00
2019-04-21T13:20:03.445Z,37.40
2019-04-21T13:22:34.087Z,35.80
2019-04-21T13:25:03.667Z,35.50
2019-04-21T13:27:32.815Z,34.10
2019-04-21T13:30:02.294Z,33.80
2019-04-21T13:32:31.615Z,34.90
2019-04-21T13:35:01.177Z,34.50
2019-04-21T13:37:30.607Z,35.60
2019-04-21T13:40:45.069Z,34.10
2019-04-21T13:43:02.324Z,36.00
2019-04-21T13:45:30.196Z,39.40
2019-04-21T13:48:00.876Z,37.80
2019-04-21T13:50:31.174Z,37.20
2019-04-21T13:53:00.680Z,37.50
2019-04-21T13:55:30.065Z,35.10
2019-04-21T13:57:59.379Z,34.80
2019-04-21T14:00:29.631Z,33.70
2019-04-21T14:03:00.722Z,33.60
2019-04-21T14:05:30.677Z,34.20
2019-04-21T14:08:01.005Z,35.90
2019-04-21T14:10:31.477Z,36.90
2019-04-21T14:13:00.802Z,38.30
2019-04-21T14:15:30.395Z,36.90
2019-04-21T14:18:00.569Z,35.30
2019-04-21T14:20:31.105Z,36.80
2019-04-21T14:23:13.517Z,35.70
2019-04-21T14:25:32.054Z,36.20
2019-04-21T14:28:02.065Z,38.50
2019-04-21T14:30:32.492Z,38.90
2019-04-21T14:33:02.389Z,39.50
2019-04-21T14:35:32.812Z,40.40
2019-04-21T14:38:02.721Z,41.40
2019-04-21T14:40:34.790Z,37.60
2019-04-21T14:43:03.051Z,35.00
2019-04-21T14:45:46.516Z,36.10
2019-04-21T14:48:34.917Z,35.50
2019-04-21T14:51:22.987Z,37.80
2019-04-21T14:54:20.646Z,38.70
2019-04-21T14:56:51.298Z,39.90
2019-04-21T14:59:21.387Z,36.90
2019-04-21T15:01:51.779Z,36.50
2019-04-21T15:04:22.381Z,36.00
2019-04-21T15:06:52.219Z,34.70
2019-04-21T15:09:22.895Z,34.00
2019-04-21T15:11:52.242Z,33.90
2019-04-21T15:14:22.196Z,34.00
2019-04-21T15:16:51.455Z,35.00
2019-04-21T15:19:20.767Z,35.80
2019-04-21T15:21:50.244Z,35.80
2019-04-21T15:24:20.482Z,35.70
2019-04-21T15:26:52.755Z,35.10
2019-04-21T15:29:20.751Z,36.30
2019-04-21T15:31:50.622Z,35.30
2019-04-21T15:34:22.486Z,34.30
2019-04-21T15:36:52.296Z,35.20
2019-04-21T15:39:21.637Z,35.60
2019-04-21T15:41:50.858Z,36.60
2019-04-21T15:44:20.831Z,35.10
2019-04-21T15:46:50.157Z,35.00
2019-04-21T15:49:20.723Z,35.30
2019-04-21T15:51:49.955Z,33.40
2019-04-21T15:54:20.528Z,35.00
2019-04-21T15:56:58.676Z,35.20
2019-04-21T15:59:48.431Z,35.20
2019-04-21T16:02:36.766Z,35.10
2019-04-21T16:05:06.943Z,34.50
2019-04-21T16:07:36.228Z,34.20
2019-04-21T16:10:08.695Z,33.90
2019-04-21T16:12:37.900Z,34.40
2019-04-21T16:15:08.468Z,33.70
2019-04-21T16:17:39.264Z,33.70
2019-04-21T16:20:10.186Z,33.40
2019-04-21T16:22:39.537Z,33.90
2019-04-21T16:25:10.612Z,33.90
2019-04-21T16:27:41.136Z,33.90
2019-04-21T16:30:12.130Z,33.70
2019-04-21T16:32:42.277Z,34.70
2019-04-21T16:35:14.330Z,33.70
2019-04-21T16:37:43.661Z,33.70
2019-04-21T16:40:13.725Z,34.10
2019-04-21T16:42:42.970Z,34.20
2019-04-21T16:45:12.911Z,34.20
2019-04-21T16:47:42.190Z,35.00
2019-04-21T16:50:12.319Z,34.90
2019-04-21T16:52:52.225Z,35.80
2019-04-21T16:55:46.967Z,35.90
2019-04-21T16:58:42.775Z,35.60
2019-04-21T17:01:17.958Z,35.60
2019-04-21T17:03:46.458Z,35.50
2019-04-21T17:06:17.235Z,35.60
2019-04-21T17:08:47.144Z,35.70
2019-04-21T17:11:22.823Z,35.90
2019-04-21T17:13:47.555Z,36.20
2019-04-21T17:16:43.434Z,36.00
2019-04-21T17:19:00.124Z,36.50
2019-04-21T17:21:19.364Z,36.60
2019-04-21T17:23:50.345Z,36.80
2019-04-21T17:26:21.222Z,37.00
2019-04-21T17:28:51.978Z,36.50
2019-04-21T17:31:22.348Z,37.10
2019-04-21T17:33:57.771Z,37.70
2019-04-21T17:36:23.184Z,37.30
2019-04-21T17:38:52.510Z,37.60
2019-04-21T17:41:31.127Z,37.60
2019-04-21T17:43:52.693Z,37.70
2019-04-21T17:46:30.484Z,37.50
2019-04-21T17:48:52.802Z,37.70
2019-04-21T17:51:29.887Z,37.80
2019-04-21T17:54:13.640Z,37.80
2019-04-21T17:57:02.835Z,38.00
2019-04-21T17:59:43.284Z,38.10
2019-04-21T18:02:00.753Z,38.60
2019-04-21T18:04:31.023Z,38.60
2019-04-21T18:07:26.238Z,38.90
2019-04-21T18:10:02.034Z,39.00
2019-04-21T18:12:28.079Z,39.70
2019-04-21T18:14:53.064Z,39.80
2019-04-21T18:17:14.253Z,40.00
2019-04-21T18:19:47.108Z,40.40
2019-04-21T18:22:41.490Z,40.70
2019-04-21T18:25:27.184Z,40.70
2019-04-21T18:27:42.706Z,41.20
2019-04-21T18:30:42.462Z,41.80
2019-04-21T18:33:21.314Z,42.10
2019-04-21T18:36:02.987Z,42.50
2019-04-21T18:38:59.680Z,42.90
2019-04-21T18:41:13.258Z,43.20
2019-04-21T18:44:18.542Z,43.40
2019-04-21T18:46:45.926Z,43.40
2019-04-21T18:49:04.665Z,43.60
2019-04-21T18:51:58.780Z,43.90
2019-04-21T18:54:41.313Z,43.90
2019-04-21T18:57:05.481Z,44.10
2019-04-21T18:59:31.105Z,44.40
2019-04-21T19:02:04.234Z,44.50
2019-04-21T19:04:30.047Z,44.80
2019-04-21T19:07:16.848Z,44.80
2019-04-21T19:10:16.852Z,44.90
2019-04-21T19:12:20.588Z,44.90
2019-04-21T19:14:45.677Z,44.80
2019-04-21T19:17:42.661Z,44.90
2019-04-21T19:19:59.194Z,45.00
2019-04-21T19:22:23.192Z,44.90
2019-04-21T19:24:55.497Z,45.00
2019-04-21T19:27:36.851Z,45.00
2019-04-21T19:30:05.636Z,44.80
2019-04-21T19:32:25.280Z,45.40
2019-04-21T19:34:41.507Z,44.70
2019-04-21T19:37:16.448Z,45.10
2019-04-21T19:39:53.858Z,44.50
2019-04-21T19:42:22.549Z,45.00
2019-04-21T19:44:59.424Z,44.40
2019-04-21T19:47:36.758Z,44.50
2019-04-21T19:50:06.043Z,44.50
2019-04-21T19:52:30.937Z,44.50
2019-04-21T19:54:50.199Z,44.50
2019-04-21T19:57:18.784Z,44.50
2019-04-21T19:59:52.062Z,44.30
2019-04-21T20:02:20.426Z,44.20
2019-04-21T20:04:57.688Z,44.40
2019-04-21T20:07:34.177Z,44.20
2019-04-21T20:10:14.403Z,44.40
2019-04-21T20:12:45.572Z,44.30
2019-04-21T20:15:20.506Z,44.40
2019-04-21T20:17:42.366Z,44.30
2019-04-21T20:19:56.201Z,44.50
2019-04-21T20:22:32.657Z,44.60
2019-04-21T20:25:02.645Z,44.70
2019-04-21T20:27:40.032Z,44.90
2019-04-21T20:30:17.529Z,44.80
2019-04-21T20:32:49.327Z,44.90
2019-04-21T20:35:21.323Z,44.80
2019-04-21T20:37:47.935Z,44.90
2019-04-21T20:40:11.529Z,44.90
2019-04-21T20:42:42.614Z,45.00
2019-04-21T20:47:41.009Z,45.00
2019-04-21T20:50:19.721Z,45.00
2019-04-21T20:52:55.190Z,45.20
2019-04-21T20:55:21.697Z,45.20
2019-04-21T20:57:51.456Z,45.20
2019-04-21T21:00:30.139Z,45.30
2019-04-21T21:03:00.917Z,45.30
2019-04-21T21:05:27.664Z,45.20
2019-04-21T21:08:03.834Z,45.20
2019-04-21T21:10:36.308Z,45.10
2019-04-21T21:13:14.769Z,45.20
2019-04-21T21:15:35.935Z,45.40
2019-04-21T21:18:15.506Z,45.50
2019-04-21T21:20:35.646Z,45.40
2019-04-21T21:23:02.938Z,45.40
2019-04-21T21:25:45.216Z,45.50
2019-04-21T21:28:01.206Z,45.50
2019-04-21T21:30:34.532Z,45.50
2019-04-21T21:33:12.714Z,45.50
2019-04-21T21:35:37.868Z,45.40
2019-04-21T21:38:14.919Z,45.50
2019-04-21T21:40:42.492Z,45.50
2019-04-21T21:43:01.631Z,45.40
2019-04-21T21:45:34.996Z,45.50
2019-04-21T21:48:18.796Z,45.50
2019-04-21T21:50:44.322Z,45.50
2019-04-21T21:53:10.467Z,45.40
2019-04-21T21:55:35.695Z,45.60
2019-04-21T21:58:07.607Z,45.50
2019-04-21T22:00:36.963Z,45.40
2019-04-21T22:03:16.287Z,45.40
2019-04-21T22:05:48.215Z,45.40
2019-04-21T22:08:10.160Z,45.50
2019-04-21T22:10:41.084Z,45.50
2019-04-21T22:13:14.773Z,45.30
2019-04-21T22:15:41.652Z,45.30
2019-04-21T22:18:28.737Z,45.30
2019-04-21T22:20:57.539Z,45.70
2019-04-21T22:23:23.923Z,45.10
2019-04-21T22:25:44.331Z,45.20
2019-04-21T22:28:15.823Z,45.10
2019-04-21T22:30:49.722Z,45.00
2019-04-21T22:33:19.347Z,45.00
2019-04-21T22:35:53.820Z,45.00
2019-04-21T22:38:31.077Z,45.30
2019-04-21T22:41:00.373Z,45.70
2019-04-21T22:43:28.514Z,45.50
2019-04-21T22:45:51.473Z,45.60
2019-04-21T22:48:23.654Z,45.50
2019-04-21T22:50:52.698Z,45.40
2019-04-21T22:53:23.052Z,45.40
2019-04-21T22:55:57.211Z,45.40
2019-04-21T22:58:29.525Z,45.30
2019-04-21T23:00:56.882Z,45.20
2019-04-21T23:03:28.202Z,45.60
2019-04-21T23:05:59.452Z,45.50
2019-04-21T23:08:34.175Z,46.10
2019-04-21T23:11:03.505Z,45.80
2019-04-21T23:13:30.522Z,45.80
2019-04-21T23:16:01.460Z,45.90
2019-04-21T23:18:48.029Z,46.30
2019-04-21T23:21:16.328Z,46.20
2019-04-21T23:23:53.170Z,47.00
2019-04-21T23:26:23.852Z,46.40
2019-04-21T23:28:56.917Z,46.50
2019-04-21T23:31:26.148Z,46.80
2019-04-21T23:33:36.708Z,46.80
2019-04-21T23:36:12.888Z,47.80
2019-04-21T23:38:43.920Z,47.00
2019-04-21T23:41:11.087Z,47.40
2019-04-21T23:43:40.484Z,47.30
2019-04-21T23:46:18.797Z,47.50
2019-04-21T23:48:57.902Z,47.40
2019-04-21T23:51:25.876Z,47.90
2019-04-21T23:53:43.659Z,47.10
2019-04-21T23:56:20.266Z,47.10
2019-04-21T23:58:52.966Z,46.80
